Time;durP1;ratioP1;P1;durP2;ratioP2;P2;SDS_P1;SDS_P2;PMS_P1;PMS_P2;Temp;Humidity;BMP_temperature;BMP_pressure;BME280_temperature;BME280_humidity;BME280_pressure;Samples;Min_cycle;Max_cycle;Signal;HPM_P1;HPM_P2
2021/04/21 00:01:19;;;;;;;1.70;0.73;;;;;;;6.73;83.35;100878.56;5073973;28;20441;-70
2021/04/21 00:03:45;;;;;;;2.80;1.50;;;;;;;6.65;83.74;100879.91;5073910;28;20468;-70
2021/04/21 00:06:13;;;;;;;2.30;0.70;;;;;;;6.66;83.07;100869.97;5073862;28;20512;-70
2021/04/21 00:08:39;;;;;;;1.03;0.97;;;;;;;6.69;82.88;100869.44;5073941;28;20456;-71
2021/04/21 00:11:06;;;;;;;1.87;1.10;;;;;;;6.71;80.97;100872.66;5073812;28;20441;-73
2021/04/21 00:13:33;;;;;;;2.90;1.00;;;;;;;6.64;81.99;100872.09;5073748;28;20461;-72
2021/04/21 00:15:59;;;;;;;0.70;0.63;;;;;;;6.65;81.48;100874.53;5073672;28;20440;-69
2021/04/21 00:18:27;;;;;;;1.63;0.90;;;;;;;6.49;82.90;100868.31;5073408;28;20441;-71
2021/04/21 00:20:57;;;;;;;2.93;1.47;;;;;;;6.52;81.02;100869.69;5073538;28;20449;-71
2021/04/21 00:23:25;;;;;;;0.80;0.70;;;;;;;6.47;81.49;100870.47;5073173;28;20477;-71
2021/04/21 00:25:54;;;;;;;0.53;0.40;;;;;;;6.49;81.06;100864.81;5073385;28;20483;-71
2021/04/21 00:28:24;;;;;;;1.70;0.87;;;;;;;6.46;80.77;100862.66;5073302;28;20479;-71
2021/04/21 00:30:52;;;;;;;2.40;1.30;;;;;;;6.27;80.96;100871.22;5073324;28;20512;-71
2021/04/21 00:33:20;;;;;;;1.47;0.63;;;;;;;6.10;81.66;100859.88;5073330;28;20492;-71
2021/04/21 00:35:51;;;;;;;1.37;0.80;;;;;;;6.11;82.65;100860.69;5073322;28;20490;-71
2021/04/21 00:38:19;;;;;;;1.37;1.27;;;;;;;5.97;84.49;100865.75;5079315;28;20433;-71
2021/04/21 00:40:53;;;;;;;2.60;1.60;;;;;;;5.93;85.75;100867.34;5073610;28;20454;-71
2021/04/21 00:43:27;;;;;;;1.27;0.70;;;;;;;5.96;86.10;100867.63;5072925;28;20862;-71
2021/04/21 00:46:06;;;;;;;2.37;1.30;;;;;;;6.08;85.69;100864.72;5073204;28;20472;-71
2021/04/21 00:48:45;;;;;;;1.00;0.87;;;;;;;6.09;85.17;100857.47;5073212;28;20428;-71
2021/04/21 00:51:14;;;;;;;3.17;1.63;;;;;;;6.02;85.28;100852.31;5073245;28;20413;-71
2021/04/21 00:53:44;;;;;;;1.63;1.10;;;;;;;5.95;85.38;100859.84;5073039;28;20544;-71
2021/04/21 00:56:16;;;;;;;0.70;0.70;;;;;;;5.97;85.82;100857.69;5073123;28;20452;-71
2021/04/21 00:58:49;;;;;;;1.77;0.97;;;;;;;5.95;85.46;100854.47;5073131;28;20425;-71
2021/04/21 01:01:16;;;;;;;1.53;0.90;;;;;;;5.94;85.18;100855.53;5073453;28;20425;-71
2021/04/21 01:03:43;;;;;;;1.00;0.67;;;;;;;5.79;86.02;100853.53;5072953;28;20450;-71
2021/04/21 01:06:14;;;;;;;0.50;0.50;;;;;;;5.77;85.95;100853.81;5072959;28;20488;-71
2021/04/21 01:08:43;;;;;;;0.57;0.47;;;;;;;5.70;85.86;100857.81;5072567;28;20549;-71
2021/04/21 01:11:13;;;;;;;22.07;1.60;;;;;;;5.72;84.05;100848.44;5073017;28;20441;-71
2021/04/21 01:13:44;;;;;;;0.97;0.80;;;;;;;5.45;85.55;100851.25;5072982;28;20464;-72
2021/04/21 01:16:11;;;;;;;0.70;0.60;;;;;;;5.33;85.72;100856.00;5062063;28;20454;-71
2021/04/21 01:18:42;;;;;;;0.50;0.50;;;;;;;5.31;85.65;100850.06;5052932;28;20449;-71
2021/04/21 01:21:12;;;;;;;1.67;1.07;;;;;;;5.26;85.01;100853.53;5052817;28;20454;-71
2021/04/21 01:23:58;;;;;;;0.97;0.70;;;;;;;5.37;84.61;100853.63;5052714;28;20477;-71
2021/04/21 01:26:39;;;;;;;3.23;1.47;;;;;;;5.24;85.00;100850.31;5053244;28;20469;-71
2021/04/21 01:29:07;;;;;;;2.50;1.07;;;;;;;5.25;84.83;100851.91;5052759;28;20423;-72
2021/04/21 01:31:36;;;;;;;3.83;1.70;;;;;;;5.26;86.25;100853.53;5055975;28;20947;-71
2021/04/21 01:34:05;;;;;;;1.80;1.00;;;;;;;5.24;86.44;100850.31;5056145;28;21044;-71
2021/04/21 01:36:33;;;;;;;2.97;0.83;;;;;;;5.20;84.86;100854.56;5056589;28;20450;-71
2021/04/21 01:39:02;;;;;;;3.83;1.30;;;;;;;5.14;87.17;100855.63;5056138;28;20449;-71
2021/04/21 01:41:34;;;;;;;2.20;1.37;;;;;;;5.12;88.33;100860.41;5056425;28;20445;-71
2021/04/21 01:44:03;;;;;;;1.57;0.90;;;;;;;5.20;88.89;100859.94;5056380;28;20458;-71
2021/04/21 01:46:35;;;;;;;2.10;0.97;;;;;;;5.26;87.95;100852.72;5056270;28;20482;-70
2021/04/21 01:49:05;;;;;;;2.37;0.97;;;;;;;5.24;88.17;100858.38;5056806;28;20484;-71
2021/04/21 01:51:33;;;;;;;2.17;1.27;;;;;;;5.23;87.82;100848.69;5076538;28;20440;-71
2021/04/21 01:54:07;;;;;;;1.97;1.33;;;;;;;5.10;89.50;100849.13;5075819;28;20465;-71
2021/04/21 01:56:39;;;;;;;1.90;1.50;;;;;;;5.10;89.52;100856.38;5076383;28;20422;-71
2021/04/21 01:59:16;;;;;;;0.60;0.50;;;;;;;5.01;89.85;100850.69;5076113;28;20773;-71
2021/04/21 02:01:49;;;;;;;1.17;0.40;;;;;;;4.96;90.16;100850.66;5061278;28;20494;-71
2021/04/21 02:04:39;;;;;;;1.20;0.90;;;;;;;4.95;90.30;100847.13;5056052;28;20457;-71
2021/04/21 02:07:19;;;;;;;2.07;1.73;;;;;;;5.08;89.29;100851.25;5055666;28;20963;-71
2021/04/21 02:10:16;;;;;;;0.80;0.70;;;;;;;5.00;89.69;100857.94;5055921;28;20437;-71
2021/04/21 02:13:03;;;;;;;1.43;1.23;;;;;;;4.93;89.52;100843.91;5055796;28;20468;-71
2021/04/21 02:15:38;;;;;;;2.37;1.87;;;;;;;4.83;87.99;100843.03;5056117;28;20418;-71
2021/04/21 02:18:11;;;;;;;17.93;0.90;;;;;;;4.76;87.70;100852.09;5056043;28;20426;-70
2021/04/21 02:20:43;;;;;;;2.53;1.33;;;;;;;4.73;86.63;100852.59;5055936;28;20480;-71
2021/04/21 02:25:57;;;;;;;1.60;1.50;;;;;;;4.64;86.63;100851.44;5097688;22;20827;-67
2021/04/21 02:28:33;;;;;;;4.40;0.83;;;;;;;4.62;85.94;100842.03;5075528;28;20804;-66
2021/04/21 02:31:09;;;;;;;0.87;0.77;;;;;;;4.72;85.50;100852.84;5075293;28;20460;-66
2021/04/21 02:33:40;;;;;;;1.37;0.87;;;;;;;4.61;86.27;100846.59;5075654;28;20425;-68
2021/04/21 02:36:12;;;;;;;1.60;0.90;;;;;;;4.52;86.66;100840.09;5075752;28;20418;-68
2021/04/21 02:38:45;;;;;;;1.43;1.23;;;;;;;4.57;86.33;100844.69;5075775;28;20430;-67
2021/04/21 02:41:16;;;;;;;2.30;1.40;;;;;;;4.53;86.24;100847.06;5075385;28;20800;-68
2021/04/21 02:43:54;;;;;;;1.53;1.13;;;;;;;4.61;88.07;100845.81;5075646;28;20997;-68
2021/04/21 02:46:26;;;;;;;1.90;1.03;;;;;;;4.42;89.77;100848.00;5075345;28;20469;-68
2021/04/21 02:49:07;;;;;;;2.97;1.90;;;;;;;4.48;89.22;100853.19;5075381;28;20417;-68
2021/04/21 02:51:44;;;;;;;2.00;1.33;;;;;;;4.33;90.61;100850.34;5075357;28;20430;-68
2021/04/21 02:54:15;;;;;;;1.47;1.37;;;;;;;4.29;89.98;100842.03;5075253;28;20465;-68
2021/04/21 02:56:50;;;;;;;0.80;0.70;;;;;;;4.33;90.43;100847.66;5075234;28;20421;-68
2021/04/21 02:59:25;;;;;;;1.27;0.67;;;;;;;4.46;89.43;100851.81;5075304;28;20421;-68
2021/04/21 03:01:54;;;;;;;1.20;0.80;;;;;;;4.46;89.42;100841.09;5074822;28;20909;-68
2021/04/21 03:04:29;;;;;;;1.30;1.20;;;;;;;4.44;89.36;100848.59;5075155;28;20472;-68
2021/04/21 03:06:57;;;;;;;1.27;0.83;;;;;;;4.31;90.03;100847.13;5074902;28;20465;-68
2021/04/21 03:09:28;;;;;;;1.13;0.97;;;;;;;4.31;90.43;100841.75;5075050;28;20441;-68
2021/04/21 03:11:57;;;;;;;1.43;1.23;;;;;;;4.37;89.92;100838.03;5074897;28;20483;-68
2021/04/21 03:14:27;;;;;;;0.60;0.40;;;;;;;4.28;89.11;100843.06;5074821;28;20472;-68
2021/04/21 03:16:56;;;;;;;8.37;1.50;;;;;;;4.26;88.51;100839.84;5074728;28;20463;-69
2021/04/21 03:19:27;;;;;;;0.60;0.60;;;;;;;4.24;89.49;100841.94;5075000;28;20570;-68
2021/04/21 03:21:57;;;;;;;0.50;0.50;;;;;;;4.22;90.61;100838.72;5074734;28;20769;-68
2021/04/21 03:24:27;;;;;;;2.10;0.60;;;;;;;4.25;90.59;100832.84;5074474;28;20473;-68
2021/04/21 03:26:58;;;;;;;0.70;0.67;;;;;;;4.09;89.10;100830.25;5074605;28;20480;-68
2021/04/21 03:29:28;;;;;;;1.00;0.73;;;;;;;4.02;88.85;100823.22;5074562;28;20414;-68
2021/04/21 03:31:57;;;;;;;1.13;0.60;;;;;;;3.98;88.75;100823.97;5074742;28;20449;-68
2021/04/21 03:34:27;;;;;;;3.77;1.30;;;;;;;3.96;88.39;100823.41;5074633;28;20457;-67
2021/04/21 03:36:54;;;;;;;1.43;1.30;;;;;;;4.05;87.79;100825.41;5074799;28;20422;-67
2021/04/21 03:39:20;;;;;;;0.87;0.73;;;;;;;4.08;87.25;100834.81;5074432;28;20437;-67
2021/04/21 03:41:46;;;;;;;2.00;1.13;;;;;;;3.96;86.69;100834.13;5074255;28;20455;-68
2021/04/21 03:44:13;;;;;;;1.67;0.77;;;;;;;3.83;86.88;100835.31;5074101;28;20616;-67
2021/04/21 03:46:41;;;;;;;1.13;1.03;;;;;;;3.74;87.84;100836.81;5074306;28;20852;-67
2021/04/21 03:49:09;;;;;;;0.73;0.53;;;;;;;3.57;87.61;100833.38;5073876;28;20882;-67
2021/04/21 03:51:37;;;;;;;1.23;1.13;;;;;;;3.50;87.35;100831.72;5073933;28;20961;-67
2021/04/21 03:54:04;;;;;;;1.97;1.27;;;;;;;3.46;88.13;100829.78;5073139;28;21004;-68
2021/04/21 03:56:32;;;;;;;1.33;0.80;;;;;;;3.52;89.35;100834.13;5074035;28;20470;-67
2021/04/21 03:58:59;;;;;;;3.37;1.00;;;;;;;3.55;89.06;100830.97;5074116;28;20437;-67
2021/04/21 04:01:26;;;;;;;0.73;0.50;;;;;;;3.53;91.51;100833.88;5073819;28;20858;-67
2021/04/21 04:03:53;;;;;;;0.53;0.53;;;;;;;3.59;92.38;100828.59;5073873;28;20458;-67
2021/04/21 04:06:23;;;;;;;0.80;0.77;;;;;;;3.60;92.77;100835.59;5073785;28;20485;-67
2021/04/21 04:08:51;;;;;;;1.50;1.37;;;;;;;3.60;93.32;100833.72;5073814;28;20436;-67
2021/04/21 04:11:22;;;;;;;1.67;1.13;;;;;;;3.67;93.23;100830.84;5073744;28;20448;-67
2021/04/21 04:13:54;;;;;;;1.00;0.90;;;;;;;3.76;93.21;100829.34;5073735;28;20472;-66
2021/04/21 04:16:22;;;;;;;0.90;0.90;;;;;;;3.70;93.36;100831.16;5073770;28;20418;-66
2021/04/21 04:18:50;;;;;;;1.33;0.97;;;;;;;3.74;92.89;100828.78;5073670;28;20442;-66
2021/04/21 04:21:18;;;;;;;2.03;0.87;;;;;;;3.77;93.13;100836.34;5073772;28;20446;-67
2021/04/21 04:23:45;;;;;;;1.40;0.90;;;;;;;3.84;93.04;100838.81;5073510;28;20484;-67
2021/04/21 04:26:14;;;;;;;1.87;1.27;;;;;;;3.83;93.25;100834.53;5073688;28;20472;-67
2021/04/21 04:28:41;;;;;;;2.20;0.97;;;;;;;3.79;92.72;100840.38;5073622;28;20491;-67
2021/04/21 04:31:08;;;;;;;1.17;1.07;;;;;;;3.96;92.57;100836.81;5073691;28;20445;-67
2021/04/21 04:33:35;;;;;;;0.50;0.50;;;;;;;3.99;91.85;100844.38;5073527;28;20451;-68
2021/04/21 04:36:02;;;;;;;1.10;0.73;;;;;;;3.94;90.57;100841.59;5073395;28;20815;-64
2021/04/21 04:38:28;;;;;;;0.77;0.77;;;;;;;3.88;88.55;100845.28;5073339;28;20961;-65
2021/04/21 04:40:55;;;;;;;0.50;0.50;;;;;;;3.76;88.64;100835.53;5073530;28;20441;-67
2021/04/21 04:43:23;;;;;;;1.47;0.73;;;;;;;3.73;88.75;100837.88;5073531;28;20437;-67
2021/04/21 04:45:54;;;;;;;1.43;1.33;;;;;;;3.83;88.81;100839.88;5073289;28;20484;-67
2021/04/21 04:48:28;;;;;;;0.70;0.60;;;;;;;3.92;88.53;100841.06;5073350;28;20766;-67
2021/04/21 04:51:00;;;;;;;0.77;0.70;;;;;;;3.94;89.06;100841.59;5073220;28;20785;-67
2021/04/21 04:53:26;;;;;;;1.40;0.80;;;;;;;4.07;88.57;100845.78;5072920;28;20954;-63
2021/04/21 04:55:52;;;;;;;5.13;1.37;;;;;;;4.13;88.48;100847.47;5073232;28;20456;-62
2021/04/21 04:58:22;;;;;;;6.10;1.93;;;;;;;4.21;88.67;100845.16;5073436;28;20437;-63
2021/04/21 05:00:49;;;;;;;0.97;0.97;;;;;;;4.25;88.56;100851.63;5072937;28;20433;-63
2021/04/21 05:03:22;;;;;;;5.23;1.00;;;;;;;4.34;88.67;100846.63;5073078;28;20456;-63
2021/04/21 05:05:53;;;;;;;1.30;1.00;;;;;;;4.40;89.12;100850.97;5075500;28;20876;-63
2021/04/21 05:08:21;;;;;;;0.70;0.70;;;;;;;4.60;88.66;100839.59;5076986;28;20899;-63
2021/04/21 05:10:52;;;;;;;3.63;0.83;;;;;;;4.77;89.14;100844.84;5077149;28;20449;-64
2021/04/21 05:13:23;;;;;;;1.27;1.17;;;;;;;4.90;90.27;100843.59;5077262;28;20421;-64
2021/04/21 05:16:24;;;;;;;1.40;1.00;;;;;;;5.13;90.54;100848.59;5077099;28;20836;-63
2021/04/21 05:19:30;;;;;;;1.67;1.13;;;;;;;5.30;90.49;100849.25;5077021;28;20471;-63
2021/04/21 05:22:36;;;;;;;1.50;1.27;;;;;;;5.48;89.94;100847.22;5076892;28;20441;-63
2021/04/21 05:25:43;;;;;;;3.27;1.03;;;;;;;5.65;88.62;100850.53;5058521;28;20488;-63
2021/04/21 05:28:46;;;;;;;1.67;1.40;;;;;;;5.81;88.20;100849.53;5076665;28;21048;-63
2021/04/21 05:31:45;;;;;;;1.43;0.70;;;;;;;5.97;87.59;100846.94;5076708;28;20906;-63
2021/04/21 05:34:51;;;;;;;1.63;0.83;;;;;;;6.14;87.33;100860.16;5073963;28;20840;-63
2021/04/21 05:37:58;;;;;;;1.10;1.00;;;;;;;6.29;86.16;100852.94;5076666;28;20525;-63
2021/04/21 05:40:51;;;;;;;2.87;1.70;;;;;;;6.34;85.47;100851.34;5076790;28;20429;-63
2021/04/21 05:43:54;;;;;;;1.60;1.20;;;;;;;6.49;85.15;100854.84;5076669;28;20849;-63
2021/04/21 05:47:11;;;;;;;2.63;1.40;;;;;;;6.61;84.29;100860.00;5076188;28;20460;-63
2021/04/21 05:50:06;;;;;;;4.83;1.80;;;;;;;6.80;83.97;100858.38;5076395;28;20464;-63
2021/04/21 05:53:06;;;;;;;1.00;0.90;;;;;;;7.00;82.77;100865.66;5076370;28;20429;-63
2021/04/21 05:56:02;;;;;;;4.10;1.50;;;;;;;7.20;81.63;100867.53;5062983;28;21067;-63
2021/04/21 05:58:46;;;;;;;2.60;1.70;;;;;;;7.33;80.70;100869.66;5075881;28;20437;-64
2021/04/21 06:01:24;;;;;;;3.20;2.90;;;;;;;7.45;79.74;100865.88;5076286;28;20433;-63
2021/04/21 06:03:53;;;;;;;1.73;1.10;;;;;;;7.61;78.75;100874.72;5075899;28;20465;-63
2021/04/21 06:06:20;;;;;;;1.80;1.40;;;;;;;7.69;78.90;100874.97;5076117;28;20559;-65
2021/04/21 06:08:46;;;;;;;3.67;2.37;;;;;;;7.81;78.28;100870.06;5076140;28;20444;-65
2021/04/21 06:11:23;;;;;;;2.00;1.70;;;;;;;7.88;75.84;100868.97;5075963;28;20810;-65
2021/04/21 06:13:54;;;;;;;1.40;1.20;;;;;;;8.02;75.71;100868.13;5075945;28;20511;-65
2021/04/21 06:16:21;;;;;;;1.80;1.50;;;;;;;8.12;74.82;100872.66;5075101;28;20433;-65
2021/04/21 06:18:55;;;;;;;5.10;2.17;;;;;;;8.29;74.67;100881.19;5075707;28;20448;-66
2021/04/21 06:21:23;;;;;;;1.37;1.00;;;;;;;8.39;74.21;100880.34;5075967;28;20430;-65
2021/04/21 06:23:49;;;;;;;1.73;1.20;;;;;;;8.50;74.17;100870.28;5075526;28;20469;-65
2021/04/21 06:26:23;;;;;;;2.10;1.60;;;;;;;8.62;73.52;100878.84;5075697;28;20477;-65
2021/04/21 06:29:02;;;;;;;2.80;0.80;;;;;;;8.69;72.60;100882.06;5075811;28;20499;-66
2021/04/21 06:31:33;;;;;;;6.53;1.77;;;;;;;8.84;71.45;100871.13;5075403;28;20798;-65
2021/04/21 06:33:59;;;;;;;4.90;1.43;;;;;;;9.01;70.11;100867.22;5075331;28;20460;-66
2021/04/21 06:36:33;;;;;;;1.63;1.30;;;;;;;9.18;67.69;100866.81;5075642;28;20442;-66
2021/04/21 06:38:59;;;;;;;2.40;2.13;;;;;;;9.25;66.60;100870.81;5075564;28;20428;-66
2021/04/21 06:41:25;;;;;;;1.87;1.07;;;;;;;9.38;66.18;100873.91;5075502;28;20426;-66
2021/04/21 06:43:51;;;;;;;2.70;2.40;;;;;;;9.51;66.31;100878.63;5075424;28;20491;-66
2021/04/21 06:46:18;;;;;;;5.10;2.30;;;;;;;9.64;65.36;100877.97;5075217;28;20603;-66
2021/04/21 06:48:45;;;;;;;4.50;2.47;;;;;;;9.73;63.55;100878.94;5075337;28;20472;-66
2021/04/21 06:51:13;;;;;;;3.20;1.70;;;;;;;9.88;63.35;100871.75;5075411;28;20814;-66
2021/04/21 06:53:40;;;;;;;3.60;2.47;;;;;;;9.97;62.05;100870.03;5075141;28;20536;-65
2021/04/21 06:56:06;;;;;;;1.73;1.40;;;;;;;10.09;61.62;100868.50;5075173;28;20437;-66
2021/04/21 06:58:34;;;;;;;1.80;1.57;;;;;;;10.24;62.35;100881.06;5075503;28;20438;-68
2021/04/21 07:01:08;;;;;;;6.70;2.30;;;;;;;10.41;60.46;100877.06;5075137;28;20430;-66
2021/04/21 07:03:35;;;;;;;6.13;2.50;;;;;;;10.59;59.76;100881.66;5075098;28;20422;-65
2021/04/21 07:06:01;;;;;;;1.50;1.40;;;;;;;10.69;58.13;100876.06;5074949;28;20487;-66
2021/04/21 07:08:32;;;;;;;6.60;2.93;;;;;;;10.84;57.35;100877.72;5074747;28;20442;-67
2021/04/21 07:11:00;;;;;;;3.43;1.87;;;;;;;10.96;58.29;100885.41;5075272;28;20473;-65
2021/04/21 07:13:31;;;;;;;43.30;3.87;;;;;;;11.09;59.24;100880.03;5074749;28;20445;-67
2021/04/21 07:15:59;;;;;;;2.97;1.80;;;;;;;11.31;58.58;100882.09;5074820;28;20433;-66
2021/04/21 07:18:29;;;;;;;6.97;3.37;;;;;;;11.45;57.11;100886.75;5074409;28;20806;-64
2021/04/21 07:20:57;;;;;;;3.57;1.63;;;;;;;11.59;55.48;100882.13;5074443;28;20456;-66
2021/04/21 07:23:25;;;;;;;4.73;2.80;;;;;;;11.66;55.06;100879.84;5074429;28;20526;-65
2021/04/21 07:25:52;;;;;;;3.13;1.27;;;;;;;11.75;53.47;100880.75;5074217;28;21068;-65
2021/04/21 07:28:22;;;;;;;4.00;1.67;;;;;;;11.89;54.19;100883.47;5073844;28;20441;-66
2021/04/21 07:30:49;;;;;;;1.47;1.30;;;;;;;11.98;53.82;100878.16;5074264;28;20486;-66
2021/04/21 07:33:33;;;;;;;2.90;1.70;;;;;;;12.07;52.46;100876.31;5074561;28;20483;-65
2021/04/21 07:36:14;;;;;;;3.20;1.23;;;;;;;12.08;52.35;100880.63;5074446;28;20525;-66
2021/04/21 07:38:43;;;;;;;1.57;1.17;;;;;;;12.05;52.40;100873.13;5074179;28;20591;-65
2021/04/21 07:41:10;;;;;;;1.47;0.93;;;;;;;12.09;53.03;100876.84;5074072;28;20449;-65
2021/04/21 07:43:42;;;;;;;4.57;2.17;;;;;;;12.11;51.29;100871.91;5074228;28;20453;-66
2021/04/21 07:46:14;;;;;;;3.60;1.67;;;;;;;12.34;51.38;100872.75;5073832;28;21053;-65
2021/04/21 07:48:44;;;;;;;3.07;1.27;;;;;;;12.43;51.85;100875.56;5074173;28;20501;-66
2021/04/21 07:51:30;;;;;;;2.97;1.50;;;;;;;12.48;52.08;100876.22;5074155;28;20452;-67
2021/04/21 07:54:00;;;;;;;2.90;1.93;;;;;;;12.58;51.40;100876.00;5073874;28;20461;-66
2021/04/21 07:56:33;;;;;;;2.27;1.93;;;;;;;12.75;51.35;100880.78;5073752;28;20426;-66
2021/04/21 07:59:13;;;;;;;1.70;1.30;;;;;;;12.94;50.61;100875.16;5073932;28;20434;-66
2021/04/21 08:01:39;;;;;;;1.43;1.10;;;;;;;12.99;49.91;100872.31;5073985;28;20457;-66
2021/04/21 08:04:14;;;;;;;1.67;0.83;;;;;;;13.14;50.17;100876.56;5073471;28;20535;-66
2021/04/21 08:06:40;;;;;;;0.90;0.77;;;;;;;13.26;47.72;100878.75;5073699;28;20864;-66
2021/04/21 08:09:06;;;;;;;1.53;1.13;;;;;;;13.35;48.39;100880.41;5073508;28;20445;-66
2021/04/21 08:11:32;;;;;;;1.07;0.97;;;;;;;13.45;47.30;100870.34;5073764;28;20449;-66
2021/04/21 08:13:58;;;;;;;1.20;0.87;;;;;;;13.55;48.17;100870.91;5073666;28;20476;-67
2021/04/21 08:16:26;;;;;;;1.60;1.50;;;;;;;13.63;47.78;100874.75;5073678;28;20437;-66
2021/04/21 08:18:54;;;;;;;3.20;1.60;;;;;;;13.78;47.58;100879.00;5073305;28;20831;-64
2021/04/21 08:21:33;;;;;;;2.40;1.37;;;;;;;13.85;47.22;100877.38;5073326;28;20879;-64
2021/04/21 08:24:00;;;;;;;1.73;1.20;;;;;;;13.92;47.40;100876.16;5099191;22;20481;-68
2021/04/21 08:26:26;;;;;;;2.50;1.30;;;;;;;13.99;47.76;100882.75;5072181;28;20484;-69
2021/04/21 08:28:52;;;;;;;2.60;1.47;;;;;;;14.05;47.63;100878.75;5073457;28;20926;-69
2021/04/21 08:31:25;;;;;;;3.50;1.87;;;;;;;14.16;47.55;100889.31;5073351;28;20950;-68
2021/04/21 08:33:51;;;;;;;4.47;2.00;;;;;;;14.28;47.62;100881.34;5073045;28;20483;-69
2021/04/21 08:36:18;;;;;;;2.53;1.57;;;;;;;14.36;47.92;100888.72;5073306;28;20441;-69
2021/04/21 08:38:44;;;;;;;4.20;2.27;;;;;;;14.42;47.13;100881.19;5072743;28;20966;-69
2021/04/21 08:41:12;;;;;;;5.43;1.67;;;;;;;14.47;47.02;100878.31;5073001;28;20445;-69
2021/04/21 08:43:38;;;;;;;6.13;1.60;;;;;;;14.48;47.90;100883.50;5073265;28;20441;-68
2021/04/21 08:46:04;;;;;;;4.13;1.60;;;;;;;14.56;47.94;100881.88;5073164;28;20485;-70
2021/04/21 08:48:32;;;;;;;1.50;1.27;;;;;;;14.70;49.00;100882.53;5072870;28;20441;-69
2021/04/21 08:51:00;;;;;;;3.87;1.40;;;;;;;14.83;47.90;100886.19;5072740;28;20958;-69
2021/04/21 08:53:27;;;;;;;4.30;2.03;;;;;;;14.82;46.72;100882.66;5072797;28;20440;-69
2021/04/21 08:55:54;;;;;;;3.37;1.33;;;;;;;14.91;46.74;100876.41;5073123;28;20488;-69
2021/04/21 08:58:20;;;;;;;7.30;1.57;;;;;;;14.92;46.80;100888.91;5073130;28;20438;-69
2021/04/21 09:00:47;;;;;;;1.43;1.30;;;;;;;14.94;46.79;100883.94;5072986;28;20430;-69
2021/04/21 09:03:15;;;;;;;2.00;1.37;;;;;;;14.93;46.91;100880.44;5073085;28;20452;-68
2021/04/21 09:05:42;;;;;;;2.80;1.70;;;;;;;15.03;47.48;100879.28;5072740;28;20472;-69
2021/04/21 09:08:09;;;;;;;6.47;1.90;;;;;;;15.17;47.07;100885.34;5072983;28;20441;-69
2021/04/21 09:10:37;;;;;;;4.67;1.80;;;;;;;15.28;46.55;100883.88;5072967;28;20529;-69
2021/04/21 09:13:03;;;;;;;4.93;2.23;;;;;;;15.31;46.63;100879.69;5072675;28;20881;-69
2021/04/21 09:15:29;;;;;;;2.90;1.60;;;;;;;15.33;45.70;100883.72;5072823;28;20472;-69
2021/04/21 09:17:56;;;;;;;4.27;1.90;;;;;;;15.29;47.39;100871.84;5072921;28;20946;-69
2021/04/21 09:20:24;;;;;;;4.63;1.87;;;;;;;15.27;45.99;100871.38;5074998;28;20445;-69
2021/04/21 09:23:02;;;;;;;7.87;2.53;;;;;;;15.44;45.95;100878.69;5081282;28;20449;-69
2021/04/21 09:25:33;;;;;;;5.10;2.53;;;;;;;15.57;47.45;100876.88;5072755;28;20473;-69
2021/04/21 09:28:00;;;;;;;3.00;1.70;;;;;;;15.62;44.05;100874.75;5072574;28;20955;-69
2021/04/21 09:30:26;;;;;;;5.60;2.10;;;;;;;15.63;44.56;100878.31;5072732;28;20448;-69
2021/04/21 09:32:54;;;;;;;3.40;2.10;;;;;;;15.69;44.51;100877.03;5072806;28;20449;-69
2021/04/21 09:35:22;;;;;;;8.83;1.87;;;;;;;15.79;44.50;100879.38;5072764;28;20468;-69
2021/04/21 09:37:49;;;;;;;1.60;1.50;;;;;;;15.79;43.33;100873.91;5072695;28;20451;-69
2021/04/21 09:40:33;;;;;;;2.37;1.33;;;;;;;15.79;43.75;100871.19;5072602;28;20445;-69
2021/04/21 09:42:59;;;;;;;3.20;1.90;;;;;;;15.76;44.96;100868.31;5072687;28;20460;-69
2021/04/21 09:45:44;;;;;;;3.67;1.73;;;;;;;15.85;45.50;100874.56;5072538;28;20563;-69
2021/04/21 09:48:13;;;;;;;3.53;1.93;;;;;;;15.87;44.08;100870.34;5072358;28;20906;-69
2021/04/21 09:50:41;;;;;;;12.57;2.53;;;;;;;15.95;45.15;100868.69;5073042;28;20851;-69
2021/04/21 09:53:25;;;;;;;1.73;1.30;;;;;;;16.01;43.62;100875.56;5076302;28;20491;-69
2021/04/21 09:56:00;;;;;;;3.47;1.43;;;;;;;15.99;43.75;100864.19;5075856;28;20461;-69
2021/04/21 09:58:27;;;;;;;1.50;1.30;;;;;;;16.02;44.60;100854.50;5076115;28;20490;-69
2021/04/21 10:00:53;;;;;;;3.10;1.67;;;;;;;16.11;44.12;100863.44;5076140;28;20855;-69
2021/04/21 10:03:19;;;;;;;3.17;1.63;;;;;;;16.25;43.45;100869.50;5075572;28;20490;-69
2021/04/21 10:05:45;;;;;;;2.83;1.60;;;;;;;16.36;42.63;100854.28;5076223;28;20468;-68
2021/04/21 10:08:13;;;;;;;4.40;2.30;;;;;;;16.28;42.67;100857.06;5076603;28;20483;-69
2021/04/21 10:10:40;;;;;;;2.47;1.77;;;;;;;16.37;44.05;100855.06;5076110;28;20445;-69
2021/04/21 10:13:18;;;;;;;1.90;1.30;;;;;;;16.53;43.37;100856.06;5076167;28;20444;-70
2021/04/21 10:15:45;;;;;;;3.27;1.60;;;;;;;16.69;43.29;100856.28;5075995;28;20464;-69
2021/04/21 10:18:13;;;;;;;1.57;1.40;;;;;;;16.70;39.47;100860.59;5076127;28;20450;-69
2021/04/21 10:20:41;;;;;;;3.63;2.20;;;;;;;16.50;39.41;100859.47;5075750;28;20468;-69
2021/04/21 10:23:07;;;;;;;1.53;1.07;;;;;;;16.35;39.60;100852.69;5075952;28;20441;-69
2021/04/21 10:25:34;;;;;;;1.33;1.10;;;;;;;16.53;40.53;100852.53;5075383;28;20477;-70
2021/04/21 10:28:00;;;;;;;3.00;1.40;;;;;;;16.69;39.24;100860.91;5075465;28;20862;-69
2021/04/21 10:30:27;;;;;;;1.77;1.10;;;;;;;16.70;39.88;100857.06;5075184;28;20828;-69
2021/04/21 10:32:53;;;;;;;8.30;1.17;;;;;;;16.71;39.37;100858.66;5075551;28;20445;-69
2021/04/21 10:35:19;;;;;;;1.43;1.07;;;;;;;16.67;39.16;100857.72;5075400;28;20811;-69
2021/04/21 10:37:45;;;;;;;1.63;1.50;;;;;;;16.64;39.01;100848.25;5075468;28;20437;-69
2021/04/21 10:40:22;;;;;;;1.93;1.23;;;;;;;16.72;40.04;100839.19;5075479;28;20441;-69
2021/04/21 10:42:49;;;;;;;3.23;1.70;;;;;;;17.08;39.35;100843.19;5075746;28;20426;-70
2021/04/21 10:45:17;;;;;;;1.37;1.07;;;;;;;17.32;38.78;100850.66;5075258;28;20465;-69
2021/04/21 10:47:46;;;;;;;2.63;1.50;;;;;;;17.38;38.52;100839.13;5075254;28;20485;-69
2021/04/21 10:50:14;;;;;;;2.60;1.57;;;;;;;17.48;38.99;100845.31;5075003;28;20976;-70
2021/04/21 10:52:41;;;;;;;1.83;1.37;;;;;;;17.71;39.69;100840.19;5074926;28;21004;-69
2021/04/21 10:55:32;;;;;;;1.87;1.13;;;;;;;17.96;38.80;100847.28;5075020;28;20449;-69
2021/04/21 10:57:59;;;;;;;2.43;1.50;;;;;;;17.92;38.16;100837.34;5063643;28;20955;-69
2021/04/21 11:00:27;;;;;;;1.33;1.23;;;;;;;17.99;37.11;100851.28;5074665;28;20460;-69
2021/04/21 11:03:02;;;;;;;4.20;1.37;;;;;;;17.99;37.38;100849.34;5074712;28;20873;-69
2021/04/21 11:05:39;;;;;;;1.53;1.37;;;;;;;17.97;36.78;100846.13;5083476;28;20458;-69
2021/04/21 11:08:07;;;;;;;2.50;1.57;;;;;;;18.19;37.66;100833.88;5074508;28;20461;-70
2021/04/21 11:10:41;;;;;;;4.07;1.43;;;;;;;18.27;37.21;100838.41;5074813;28;20455;-69
2021/04/21 11:13:08;;;;;;;1.83;1.20;;;;;;;18.31;36.65;100841.28;5074807;28;20425;-69
2021/04/21 11:15:40;;;;;;;1.30;1.07;;;;;;;18.83;34.48;100841.22;5074853;28;20465;-69
2021/04/21 11:18:34;;;;;;;1.60;1.50;;;;;;;19.72;33.72;100842.72;5074659;28;20521;-69
2021/04/21 11:21:03;;;;;;;1.40;0.90;;;;;;;20.23;32.00;100841.88;5074718;28;20436;-69
2021/04/21 11:23:54;;;;;;;1.33;1.23;;;;;;;21.14;32.30;100841.38;5074421;28;20433;-69
2021/04/21 11:26:37;;;;;;;7.90;1.57;;;;;;;21.96;30.01;100844.66;5074394;28;20534;-69
2021/04/21 11:29:06;;;;;;;1.70;1.30;;;;;;;22.55;29.65;100840.38;5074803;28;20436;-70
2021/04/21 11:32:09;;;;;;;2.63;1.27;;;;;;;22.75;29.49;100836.25;5074510;28;20449;-68
2021/04/21 11:34:38;;;;;;;1.57;1.13;;;;;;;22.75;28.30;100841.78;5074357;28;20468;-68
2021/04/21 11:37:06;;;;;;;2.17;1.60;;;;;;;22.32;29.59;100835.75;5074269;28;20445;-68
2021/04/21 11:40:08;;;;;;;3.10;1.73;;;;;;;22.73;29.61;100844.13;5074360;28;20449;-68
2021/04/21 11:42:43;;;;;;;1.97;1.53;;;;;;;22.34;29.06;100840.91;5074118;28;20783;-69
2021/04/21 11:45:37;;;;;;;2.33;1.40;;;;;;;21.61;28.63;100842.97;5074367;28;20878;-68
2021/04/21 11:48:22;;;;;;;2.40;1.60;;;;;;;21.77;29.09;100835.34;5074077;28;20966;-68
2021/04/21 11:50:50;;;;;;;3.07;1.63;;;;;;;22.32;27.29;100840.50;5074085;28;20466;-69
2021/04/21 11:53:18;;;;;;;1.83;1.07;;;;;;;23.06;27.43;100831.47;5073864;28;20449;-69
2021/04/21 11:55:55;;;;;;;1.60;1.27;;;;;;;23.26;26.83;100841.16;5073813;28;20469;-69